Time;durP1;ratioP1;P1;durP2;ratioP2;P2;SDS_P1;SDS_P2;PMS_P1;PMS_P2;Temp;Humidity;BMP_temperature;BMP_pressure;BME280_temperature;BME280_humidity;BME280_pressure;Samples;Min_cycle;Max_cycle;Signal;HPM_P1;HPM_P2
2023/06/03 00:00:18;;;;;;;;;;;;;;;19.83;27.70;101559.34;5029922;28;20227;-60
2023/06/03 00:02:43;;;;;;;;;;;;;;;19.88;27.33;101558.69;5031752;28;19923;-57
2023/06/03 00:05:09;;;;;;;;;;;;;;;19.88;27.53;101553.22;5032599;28;19913;-57
2023/06/03 00:07:34;;;;;;;;;;;;;;;19.86;27.65;101550.72;5032420;28;19913;-55
2023/06/03 00:09:59;;;;;;;;;;;;;;;19.87;27.15;101560.59;5034640;28;19924;-54
2023/06/03 00:12:25;;;;;;;;;;;;;;;19.87;27.19;101555.13;5050632;28;19956;-54
2023/06/03 00:14:50;;;;;;;;;;;;;;;19.88;27.07;101564.13;5052707;28;20338;-55
2023/06/03 00:17:15;;;;;;;;;;;;;;;19.85;27.46;101559.94;5048436;28;19936;-53
2023/06/03 00:19:41;;;;;;;;;;;;;;;19.85;26.99;101564.59;5050303;28;19935;-60
2023/06/03 00:22:06;;;;;;;;;;;;;;;19.86;27.01;101563.53;5051395;28;20366;-60
2023/06/03 00:24:32;;;;;;;;;;;;;;;19.89;27.50;101557.59;5048709;28;19927;-56
2023/06/03 00:26:57;;;;;;;;;;;;;;;19.90;28.14;101560.09;5030953;28;19975;-61
2023/06/03 00:29:24;;;;;;;;;;;;;;;19.96;27.41;101563.81;5037718;28;19920;-59
2023/06/03 00:31:49;;;;;;;;;;;;;;;20.00;27.64;101566.91;5031701;28;20329;-61
2023/06/03 00:34:14;;;;;;;;;;;;;;;19.96;27.45;101565.72;5031858;28;19940;-47
2023/06/03 00:36:40;;;;;;;;;;;;;;;19.94;28.11;101570.56;5031434;28;20269;-45
2023/06/03 00:39:06;;;;;;;;;;;;;;;19.87;28.35;101560.59;5029553;28;19978;-44
2023/06/03 00:41:32;;;;;;;;;;;;;;;19.91;27.97;101558.25;5031304;28;20346;-43
2023/06/03 00:43:57;;;;;;;;;;;;;;;19.86;27.80;101558.09;5029909;28;19939;-46
2023/06/03 00:46:23;;;;;;;;;;;;;;;19.81;28.12;101558.75;5030392;28;19920;-42
2023/06/03 00:48:50;;;;;;;;;;;;;;;19.76;28.55;101558.63;5012647;28;19963;-44
2023/06/03 00:51:16;;;;;;;;;;;;;;;19.72;28.58;101554.63;5029445;28;19924;-44
2023/06/03 00:53:41;;;;;;;;;;;;;;;19.71;28.55;101559.25;5032870;28;19917;-43
2023/06/03 00:56:06;;;;;;;;;;;;;;;19.67;28.59;101552.59;5032864;28;20358;-44
2023/06/03 00:58:32;;;;;;;;;;;;;;;19.76;28.63;101550.44;5040670;28;19924;-46
2023/06/03 01:00:57;;;;;;;;;;;;;;;19.70;28.00;101552.13;5051368;28;19964;-47
2023/06/03 01:03:23;;;;;;;;;;;;;;;19.69;28.51;101545.03;5052507;28;19921;-42
2023/06/03 01:05:51;;;;;;;;;;;;;;;19.67;28.59;101547.16;5052426;28;19917;-43
2023/06/03 01:08:22;;;;;;;;;;;;;;;19.67;28.48;101543.59;5052266;28;19920;-43
2023/06/03 01:10:54;;;;;;;;;;;;;;;19.71;28.68;101537.47;5052457;28;19913;-44
2023/06/03 01:13:22;;;;;;;;;;;;;;;19.68;28.81;101542.53;5052277;28;19948;-43
2023/06/03 01:15:50;;;;;;;;;;;;;;;19.66;28.74;101540.03;5034236;28;20346;-44
2023/06/03 01:18:18;;;;;;;;;;;;;;;19.65;28.50;101540.25;5052050;28;19941;-45
2023/06/03 01:20:43;;;;;;;;;;;;;;;19.63;28.90;101540.50;5052174;28;20399;-42
2023/06/03 01:23:24;;;;;;;;;;;;;;;19.61;28.70;101536.31;5052010;28;19913;-43
2023/06/03 01:25:51;;;;;;;;;;;;;;;19.35;28.12;101491.97;5052413;28;20331;-44
2023/06/03 01:28:17;;;;;;;;;;;;;;;19.61;28.65;101544.50;5052013;28;19913;-43
2023/06/03 01:30:43;;;;;;;;;;;;;;;19.62;28.27;101547.00;5052257;28;19913;-43
2023/06/03 01:33:08;;;;;;;;;;;;;;;19.61;28.73;101536.31;5037440;28;19916;-43
2023/06/03 01:35:34;;;;;;;;;;;;;;;19.65;28.44;101548.44;5037613;28;20327;-45
2023/06/03 01:38:00;;;;;;;;;;;;;;;19.62;28.29;101547.00;5037731;28;20368;-44
2023/06/03 01:40:26;;;;;;;;;;;;;;;19.62;28.32;101544.28;5055623;28;19920;-44
2023/06/03 01:42:51;;;;;;;;;;;;;;;19.61;28.53;101536.31;5055436;28;19916;-43
2023/06/03 01:45:16;;;;;;;;;;;;;;;19.62;28.32;101541.56;5055399;28;20430;-43
2023/06/03 01:47:42;;;;;;;;;;;;;;;19.60;29.10;101545.56;5055335;28;19913;-48
2023/06/03 01:50:08;;;;;;;;;;;;;;;19.59;29.17;101542.00;5056400;28;19920;-43
2023/06/03 01:52:33;;;;;;;;;;;;;;;19.61;28.55;101553.50;5056679;28;19912;-44
2023/06/03 01:54:58;;;;;;;;;;;;;;;19.64;28.19;101549.50;5056509;28;20243;-46
2023/06/03 01:57:24;;;;;;;;;;;;;;;19.67;28.43;101540.88;5037217;28;19913;-43
2023/06/03 01:59:51;;;;;;;;;;;;;;;19.67;28.69;101554.50;5055016;28;19960;-45
2023/06/03 02:02:16;;;;;;;;;;;;;;;19.70;28.49;101549.41;5054119;28;19967;-47
2023/06/03 02:04:44;;;;;;;;;;;;;;;19.68;28.73;101556.97;5054946;28;19956;-46
2023/06/03 02:07:10;;;;;;;;;;;;;;;19.61;28.76;101561.66;5036893;28;19917;-48
2023/06/03 02:09:36;;;;;;;;;;;;;;;19.59;29.01;101562.97;5056533;28;19920;-47
2023/06/03 02:12:01;;;;;;;;;;;;;;;19.52;29.44;101550.25;5054901;28;19913;-45
2023/06/03 02:14:27;;;;;;;;;;;;;;;19.55;29.07;101554.41;5054740;28;19947;-47
2023/06/03 02:16:55;;;;;;;;;;;;;;;19.61;29.00;101550.78;5055042;28;19939;-44
2023/06/03 02:19:21;;;;;;;;;;;;;;;19.57;29.49;101554.19;5054772;28;19913;-44
2023/06/03 02:21:47;;;;;;;;;;;;;;;19.57;29.28;101556.91;5054908;28;19924;-45
2023/06/03 02:24:16;;;;;;;;;;;;;;;19.58;28.92;101558.59;5054843;28;19916;-44
2023/06/03 02:26:49;;;;;;;;;;;;;;;19.59;29.17;101558.34;5036257;28;19978;-44
2023/06/03 02:29:18;;;;;;;;;;;;;;;19.50;29.53;101560.56;5054150;28;20037;-43
2023/06/03 02:31:44;;;;;;;;;;;;;;;19.47;29.32;101562.91;5054554;28;19919;-45
2023/06/03 02:34:09;;;;;;;;;;;;;;;19.45;28.55;101557.66;5054568;28;19913;-46
2023/06/03 02:36:35;;;;;;;;;;;;;;;19.44;28.69;101552.44;5054223;28;20316;-48
2023/06/03 02:39:01;;;;;;;;;;;;;;;19.46;28.90;101550.31;5054432;28;20293;-45
2023/06/03 02:41:26;;;;;;;;;;;;;;;19.41;29.52;101551.00;5054053;28;19975;-44
2023/06/03 02:43:51;;;;;;;;;;;;;;;19.38;29.29;101554.19;5053065;28;19912;-44
2023/06/03 02:46:16;;;;;;;;;;;;;;;19.39;29.93;101555.00;5054071;28;20361;-46
2023/06/03 02:48:41;;;;;;;;;;;;;;;19.35;29.61;101554.63;5054206;28;19927;-49
2023/06/03 02:51:07;;;;;;;;;;;;;;;19.34;29.73;101556.53;5053904;28;19913;-49
2023/06/03 02:53:33;;;;;;;;;;;;;;;19.39;29.43;101549.56;5036472;28;19917;-46
2023/06/03 02:55:59;;;;;;;;;;;;;;;19.45;29.38;101544.06;5054306;28;19921;-46
2023/06/03 02:58:24;;;;;;;;;;;;;;;19.52;29.36;101555.72;5053868;28;19974;-43
2023/06/03 03:00:50;;;;;;;;;;;;;;;19.62;28.96;101555.19;5053501;28;19927;-43
2023/06/03 03:03:16;;;;;;;;;;;;;;;19.71;29.03;101553.81;5053815;28;20277;-48
2023/06/03 03:05:42;;;;;;;;;;;;;;;19.75;29.08;101553.41;5053947;28;19959;-44
2023/06/03 03:08:08;;;;;;;;;;;;;;;19.77;28.92;101552.09;5053875;28;19963;-47
2023/06/03 03:10:33;;;;;;;;;;;;;;;19.74;28.71;101547.09;5072585;28;19913;-46
2023/06/03 03:12:58;;;;;;;;;;;;;;;19.77;28.62;101540.38;5073650;28;19975;-43
2023/06/03 03:15:23;;;;;;;;;;;;;;;19.77;28.80;101537.66;5073527;28;20357;-48
2023/06/03 03:17:49;;;;;;;;;;;;;;;19.75;29.21;101545.22;5073551;28;19913;-46
2023/06/03 03:20:14;;;;;;;;;;;;;;;19.78;29.04;101540.16;5073480;28;19912;-46
2023/06/03 03:22:40;;;;;;;;;;;;;;;19.77;28.46;101537.66;5073429;28;19917;-43
2023/06/03 03:25:05;;;;;;;;;;;;;;;19.72;28.68;101535.56;5073638;28;19962;-45
2023/06/03 03:27:31;;;;;;;;;;;;;;;19.76;28.01;101536.81;5073233;28;20005;-42
2023/06/03 03:29:58;;;;;;;;;;;;;;;19.79;28.32;101539.06;5073473;28;19919;-46
2023/06/03 03:32:23;;;;;;;;;;;;;;;19.80;28.24;101534.44;5073716;28;19912;-44
2023/06/03 03:34:57;;;;;;;;;;;;;;;19.77;29.00;101537.66;5073252;28;19916;-45
2023/06/03 03:37:22;;;;;;;;;;;;;;;19.73;28.67;101534.53;5073597;28;19912;-45
2023/06/03 03:39:47;;;;;;;;;;;;;;;19.71;29.08;101539.38;5073077;28;20427;-45
2023/06/03 03:42:13;;;;;;;;;;;;;;;19.69;28.80;101539.59;5071890;28;19916;-46
2023/06/03 03:44:38;;;;;;;;;;;;;;;19.79;28.61;101541.78;5053472;28;20250;-44
2023/06/03 03:47:03;;;;;;;;;;;;;;;19.70;28.48;101541.22;5053211;28;20023;-43
2023/06/03 03:49:31;;;;;;;;;;;;;;;19.73;28.36;101545.44;5053005;28;19923;-43
2023/06/03 03:51:57;;;;;;;;;;;;;;;19.81;27.99;101547.03;5053328;28;20329;-45
2023/06/03 03:54:23;;;;;;;;;;;;;;;19.79;28.06;101544.53;5052650;28;20358;-46
2023/06/03 03:56:52;;;;;;;;;;;;;;;19.84;27.73;101547.41;5054060;28;19966;-43
2023/06/03 03:59:18;;;;;;;;;;;;;;;19.86;27.71;101549.91;5053229;28;19956;-42
2023/06/03 04:01:43;;;;;;;;;;;;;;;19.93;27.71;101553.38;5052610;28;19951;-44
2023/06/03 04:04:09;;;;;;;;;;;;;;;19.92;27.67;101557.16;5053246;28;19917;-43
2023/06/03 04:06:37;;;;;;;;;;;;;;;19.91;27.50;101556.34;5053181;28;19913;-43
2023/06/03 04:09:03;;;;;;;;;;;;;;;19.92;27.44;101562.63;5058825;28;19924;-43
2023/06/03 04:11:29;;;;;;;;;;;;;;;19.97;27.33;101559.22;5073149;28;20018;-45
2023/06/03 04:13:55;;;;;;;;;;;;;;;20.00;27.22;101562.31;5071583;28;19913;-43
2023/06/03 04:16:26;;;;;;;;;;;;;;;20.06;27.14;101560.56;5072716;28;19913;-46
2023/06/03 04:18:52;;;;;;;;;;;;;;;20.00;27.20;101559.59;5054592;28;20057;-45
2023/06/03 04:21:18;;;;;;;;;;;;;;;20.02;27.25;101556.59;5072582;28;20011;-43
2023/06/03 04:23:45;;;;;;;;;;;;;;;20.00;27.09;101561.47;5072531;28;19919;-46
2023/06/03 04:26:11;;;;;;;;;;;;;;;20.09;27.00;101569.09;5072783;28;19935;-43
2023/06/03 04:28:37;;;;;;;;;;;;;;;20.07;27.01;101559.47;5072587;28;19966;-44
2023/06/03 04:31:03;;;;;;;;;;;;;;;20.11;26.90;101564.25;5072428;28;19917;-44
2023/06/03 04:33:28;;;;;;;;;;;;;;;20.12;26.88;101562.34;5072396;28;19934;-42
2023/06/03 04:35:53;;;;;;;;;;;;;;;20.20;26.84;101566.66;5072518;28;19917;-45
2023/06/03 04:38:18;;;;;;;;;;;;;;;20.31;26.65;101569.41;5072234;28;19916;-46
2023/06/03 04:40:46;;;;;;;;;;;;;;;20.34;26.56;101570.00;5054079;28;19913;-49
2023/06/03 04:43:14;;;;;;;;;;;;;;;20.36;26.67;101567.91;5052816;28;19920;-47
2023/06/03 04:45:40;;;;;;;;;;;;;;;20.45;26.62;101569.25;5052301;28;20368;-43
2023/06/03 04:48:05;;;;;;;;;;;;;;;20.50;26.46;101574.81;5052458;28;19913;-43
2023/06/03 04:50:34;;;;;;;;;;;;;;;20.56;26.70;101573.06;5052244;28;19913;-45
2023/06/03 04:53:00;;;;;;;;;;;;;;;20.69;26.34;101567.44;5052332;28;19913;-45
2023/06/03 04:55:25;;;;;;;;;;;;;;;20.74;26.33;101570.28;5052318;28;19912;-45
2023/06/03 04:57:52;;;;;;;;;;;;;;;20.79;26.33;101570.41;5051945;28;19921;-44
2023/06/03 05:00:19;;;;;;;;;;;;;;;20.79;26.17;101573.16;5052295;28;19930;-45
2023/06/03 05:02:54;;;;;;;;;;;;;;;20.82;26.11;101567.22;5051578;28;20535;-43
2023/06/03 05:05:21;;;;;;;;;;;;;;;20.91;26.02;101567.69;5052202;28;20415;-47
2023/06/03 05:07:46;;;;;;;;;;;;;;;20.87;26.00;101578.25;5056133;28;19913;-43
2023/06/03 05:10:12;;;;;;;;;;;;;;;20.91;26.03;101569.59;5071697;28;19920;-44
2023/06/03 05:12:37;;;;;;;;;;;;;;;20.92;25.88;101571.28;5075959;28;19917;-43
2023/06/03 05:15:02;;;;;;;;;;;;;;;20.92;25.92;101572.09;5075945;28;20007;-43
2023/06/03 05:17:28;;;;;;;;;;;;;;;20.92;25.82;101574.84;5076213;28;20258;-47
2023/06/03 05:19:53;;;;;;;;;;;;;;;20.90;26.15;101574.25;5075985;28;19970;-45
2023/06/03 05:22:18;;;;;;;;;;;;;;;20.88;26.16;101574.47;5075596;28;19951;-44
2023/06/03 05:24:44;;;;;;;;;;;;;;;20.92;25.64;101574.84;5075773;28;19946;-46
2023/06/03 05:27:09;;;;;;;;;;;;;;;20.91;25.87;101569.59;5075698;28;19913;-46
2023/06/03 05:29:34;;;;;;;;;;;;;;;20.95;25.90;101571.66;5075572;28;19912;-42
2023/06/03 05:32:00;;;;;;;;;;;;;;;21.00;25.58;101574.47;5075742;28;19965;-44
2023/06/03 05:34:25;;;;;;;;;;;;;;;20.90;25.68;101578.88;5075368;28;20385;-44
2023/06/03 05:36:50;;;;;;;;;;;;;;;20.90;25.68;101573.41;5058616;28;19922;-43
2023/06/03 05:39:15;;;;;;;;;;;;;;;20.94;25.64;101574.59;5055489;28;20072;-43
2023/06/03 05:41:41;;;;;;;;;;;;;;;21.00;25.48;101582.66;5055831;28;19928;-42
2023/06/03 05:44:06;;;;;;;;;;;;;;;21.02;25.43;101582.44;5037566;28;19928;-44
2023/06/03 05:46:31;;;;;;;;;;;;;;;21.08;25.02;101579.59;5055546;28;19920;-45
2023/06/03 05:48:56;;;;;;;;;;;;;;;21.04;25.42;101575.69;5055609;28;19917;-42
2023/06/03 05:51:22;;;;;;;;;;;;;;;21.05;25.32;101573.78;5055216;28;19912;-45
2023/06/03 05:53:47;;;;;;;;;;;;;;;21.07;25.48;101569.72;5055192;28;19913;-45
2023/06/03 05:56:12;;;;;;;;;;;;;;;21.10;25.39;101567.59;5055387;28;20313;-46
2023/06/03 05:58:41;;;;;;;;;;;;;;;21.09;25.34;101566.78;5055071;28;20409;-46
2023/06/03 06:01:06;;;;;;;;;;;;;;;21.16;25.33;101580.31;5054407;28;20265;-43
2023/06/03 06:03:32;;;;;;;;;;;;;;;21.19;25.20;101574.38;5055399;28;19913;-49
2023/06/03 06:05:59;;;;;;;;;;;;;;;21.23;24.93;101575.59;5055074;28;19923;-44
2023/06/03 06:08:25;;;;;;;;;;;;;;;21.21;25.04;101577.69;5055811;28;19912;-44
2023/06/03 06:10:50;;;;;;;;;;;;;;;21.23;25.17;101576.41;5057120;28;20421;-43
2023/06/03 06:13:15;;;;;;;;;;;;;;;21.29;25.37;101571.06;5075457;28;19964;-45
2023/06/03 06:15:54;;;;;;;;;;;;;;;21.32;25.16;101565.09;5075076;28;19916;-45
2023/06/03 06:18:21;;;;;;;;;;;;;;;21.37;25.28;101562.50;5073938;28;19917;-43
2023/06/03 06:20:48;;;;;;;;;;;;;;;21.40;24.94;101562.03;5074814;28;19912;-44
2023/06/03 06:23:14;;;;;;;;;;;;;;;21.44;24.63;101560.47;5071150;28;19957;-46
2023/06/03 06:25:40;;;;;;;;;;;;;;;21.43;24.61;101562.38;5045710;28;19917;-45
2023/06/03 06:28:05;;;;;;;;;;;;;;;21.42;24.99;101557.16;5019187;28;20322;-45
2023/06/03 06:30:31;;;;;;;;;;;;;;;21.41;24.59;101552.75;5035266;28;19913;-49
2023/06/03 06:32:56;;;;;;;;;;;;;;;21.42;24.76;101547.03;5050338;28;20337;-43
2023/06/03 06:35:24;;;;;;;;;;;;;;;21.48;24.83;101549.94;5054231;28;19912;-43
2023/06/03 06:37:49;;;;;;;;;;;;;;;21.55;24.32;101548.72;5054523;28;19944;-43
2023/06/03 06:40:19;;;;;;;;;;;;;;;21.50;23.80;101548.59;5054557;28;20319;-45
2023/06/03 06:42:44;;;;;;;;;;;;;;;21.58;23.82;101544.66;5054240;28;19917;-42
2023/06/03 06:45:14;;;;;;;;;;;;;;;21.65;23.33;101550.84;5054396;28;19920;-46
2023/06/03 06:47:39;;;;;;;;;;;;;;;21.68;23.23;101544.88;5054347;28;19912;-42
2023/06/03 06:50:08;;;;;;;;;;;;;;;21.61;23.31;101541.44;5054325;28;20311;-48
2023/06/03 06:52:34;;;;;;;;;;;;;;;21.58;23.27;101545.50;5054176;28;20019;-46
2023/06/03 06:54:59;;;;;;;;;;;;;;;21.60;23.43;101543.38;5054163;28;20000;-46
2023/06/03 06:57:27;;;;;;;;;;;;;;;21.65;24.08;101542.63;5036209;28;19936;-44
2023/06/03 06:59:52;;;;;;;;;;;;;;;21.72;23.81;101546.06;5014227;28;20027;-47
2023/06/03 07:02:18;;;;;;;;;;;;;;;21.77;23.41;101542.63;5013482;28;19917;-43
2023/06/03 07:04:43;;;;;;;;;;;;;;;21.84;22.99;101538.66;5014307;28;19920;-44
2023/06/03 07:07:09;;;;;;;;;;;;;;;21.89;23.56;101548.88;5014194;28;19960;-44
2023/06/03 07:09:34;;;;;;;;;;;;;;;21.92;23.21;101547.56;5024427;28;19913;-46
2023/06/03 07:12:00;;;;;;;;;;;;;;;21.94;23.25;101546.25;5033897;28;19920;-42
2023/06/03 07:14:28;;;;;;;;;;;;;;;21.91;23.12;101543.16;5033843;28;19917;-46
2023/06/03 07:16:53;;;;;;;;;;;;;;;21.84;23.43;101533.19;5033764;28;19913;-44
2023/06/03 07:19:18;;;;;;;;;;;;;;;21.88;23.26;101539.00;5033855;28;19917;-47
2023/06/03 07:21:44;;;;;;;;;;;;;;;21.95;23.42;101534.25;5033624;28;19917;-49
2023/06/03 07:24:11;;;;;;;;;;;;;;;21.98;23.28;101530.16;5033990;28;19913;-43
2023/06/03 07:26:36;;;;;;;;;;;;;;;;;;5033591;28;19913;-48
2023/06/03 07:29:03;;;;;;;;;;;;;;;22.08;23.08;101533.09;5018964;28;19914;-46
2023/06/03 07:31:30;;;;;;;;;;;;;;;22.12;22.85;101525.22;5013999;28;19948;-47
2023/06/03 07:33:55;;;;;;;;;;;;;;;22.12;22.64;101528.81;5013851;28;20362;-43
2023/06/03 07:36:22;;;;;;;;;;;;;;;22.14;22.95;101528.53;5013697;28;20000;-43
2023/06/03 07:39:03;;;;;;;;;;;;;;;22.17;22.88;101528.88;5028786;28;20347;-43
2023/06/03 07:41:28;;;;;;;;;;;;;;;22.11;23.07;101524.41;5013790;28;20019;-44
2023/06/03 07:43:56;;;;;;;;;;;;;;;22.21;22.72;101526.50;5012278;28;19993;-44
2023/06/03 07:46:24;;;;;;;;;;;;;;;22.32;22.67;101528.38;5013164;28;19971;-49
2023/06/03 07:48:49;;;;;;;;;;;;;;;22.36;22.41;101523.22;5013326;28;20011;-45
2023/06/03 07:51:15;;;;;;;;;;;;;;;22.37;22.36;101520.25;5012292;28;20004;-44
2023/06/03 07:53:40;;;;;;;;;;;;;;;22.41;22.62;101515.13;5013475;28;19920;-44
2023/06/03 07:56:09;;;;;;;;;;;;;;;22.48;22.75;101510.31;5013178;28;19960;-46
2023/06/03 07:58:37;;;;;;;;;;;;;;;22.54;22.07;101513.97;5031578;28;19925;-48
2023/06/03 08:01:03;;;;;;;;;;;;;;;22.46;22.02;101512.47;5042295;28;19925;-45
2023/06/03 08:03:28;;;;;;;;;;;;;;;22.58;22.07;101509.66;5042356;28;19924;-46
2023/06/03 08:05:56;;;;;;;;;;;;;;;22.69;22.25;101503.25;5038938;28;19920;-44
2023/06/03 08:08:25;;;;;;;;;;;;;;;22.77;21.78;101511.06;5034044;28;19913;-45
2023/06/03 08:10:50;;;;;;;;;;;;;;;22.81;21.60;101498.53;5072571;28;19919;-46
2023/06/03 08:13:17;;;;;;;;;;;;;;;22.85;21.84;101489.81;5072810;28;19965;-46
2023/06/03 08:15:43;;;;;;;;;;;;;;;22.94;21.94;101494.63;5072650;28;19919;-43
2023/06/03 08:18:08;;;;;;;;;;;;;;;22.97;21.85;101479.56;5073069;28;19916;-46
2023/06/03 08:20:36;;;;;;;;;;;;;;;22.93;21.38;101472.94;5072430;28;20549;-47
2023/06/03 08:23:01;;;;;;;;;;;;;;;22.99;21.43;101466.44;5072433;28;19923;-45
2023/06/03 08:25:27;;;;;;;;;;;;;;;23.09;21.44;101463.91;5056896;28;19999;-45
2023/06/03 08:27:52;;;;;;;;;;;;;;;23.22;22.02;101462.72;5052566;28;19952;-47
2023/06/03 08:30:18;;;;;;;;;;;;;;;23.16;21.32;101471.91;5052400;28;19913;-42
2023/06/03 08:32:43;;;;;;;;;;;;;;;23.28;21.36;101474.56;5038821;28;19917;-44
2023/06/03 08:35:09;;;;;;;;;;;;;;;23.34;21.12;101471.63;5032350;28;19971;-46
2023/06/03 08:37:35;;;;;;;;;;;;;;;23.51;20.87;101468.84;5032803;28;19917;-48
2023/06/03 08:40:01;;;;;;;;;;;;;;;23.56;20.89;101465.31;5032397;28;19913;-43
2023/06/03 08:42:33;;;;;;;;;;;;;;;23.62;20.61;101466.19;5038139;28;19918;-45
2023/06/03 08:45:06;;;;;;;;;;;;;;;23.72;20.75;101463.59;5056656;28;19987;-44
2023/06/03 08:47:50;;;;;;;;;;;;;;;23.89;20.85;101469.00;5056178;28;20302;-43
2023/06/03 08:50:20;;;;;;;;;;;;;;;23.93;20.22;101462.72;5053597;28;19917;-43
2023/06/03 08:52:47;;;;;;;;;;;;;;;24.09;20.32;101468.34;5045112;28;19913;-46
2023/06/03 08:55:15;;;;;;;;;;;;;;;23.99;20.60;101460.03;5046499;28;19958;-45
2023/06/03 08:57:53;;;;;;;;;;;;;;;24.23;20.46;101463.28;5046402;28;19924;-46
2023/06/03 09:00:21;;;;;;;;;;;;;;;24.18;20.32;101460.50;5047099;28;19999;-44
2023/06/03 09:02:47;;;;;;;;;;;;;;;24.37;20.24;101453.53;5046238;28;19917;-46
2023/06/03 09:05:12;;;;;;;;;;;;;;;24.47;19.98;101452.78;5045333;28;20600;-46
2023/06/03 09:07:38;;;;;;;;;;;;;;;24.56;19.74;101447.66;5045991;28;20362;-43
2023/06/03 09:10:04;;;;;;;;;;;;;;;24.61;19.45;101443.03;5048746;28;19948;-45
2023/06/03 09:12:30;;;;;;;;;;;;;;;24.79;19.26;101446.44;5044397;28;19956;-45
2023/06/03 09:14:57;;;;;;;;;;;;;;;24.93;19.35;101437.47;5036301;28;19913;-45
2023/06/03 09:17:24;;;;;;;;;;;;;;;24.86;19.69;101430.53;5036025;28;19920;-50
2023/06/03 09:19:50;;;;;;;;;;;;;;;24.63;19.24;101431.78;5018592;28;19920;-45
2023/06/03 09:22:16;;;;;;;;;;;;;;;24.80;19.65;101424.19;5021609;28;19917;-44
2023/06/03 09:24:42;;;;;;;;;;;;;;;24.77;19.63;101432.16;5056057;28;19917;-49
2023/06/03 09:27:07;;;;;;;;;;;;;;;25.03;18.98;101425.69;5055917;28;19923;-44
2023/06/03 09:29:32;;;;;;;;;;;;;;;24.99;19.07;101419.06;5056470;28;20004;-44
2023/06/03 09:31:58;;;;;;;;;;;;;;;25.13;19.18;101422.19;5056292;28;19939;-44
2023/06/03 09:34:25;;;;;;;;;;;;;;;25.30;19.66;101420.06;5056103;28;20604;-43
2023/06/03 09:36:50;;;;;;;;;;;;;;;25.49;19.23;101408.56;5055785;28;19914;-43
2023/06/03 09:39:30;;;;;;;;;;;;;;;25.40;19.21;101411.03;5055536;28;19925;-43
2023/06/03 09:41:56;;;;;;;;;;;;;;;25.48;19.30;101404.16;5055523;28;20293;-44
2023/06/03 09:44:21;;;;;;;;;;;;;;;25.55;19.05;101417.66;5055820;28;19912;-43
2023/06/03 09:46:49;;;;;;;;;;;;;;;25.74;18.99;101404.22;5055731;28;20447;-43
2023/06/03 09:49:16;;;;;;;;;;;;;;;25.76;18.86;101415.78;5055925;28;19919;-44
2023/06/03 09:51:45;;;;;;;;;;;;;;;25.95;18.63;101411.44;5055485;28;19923;-45
2023/06/03 09:54:12;;;;;;;;;;;;;;;25.91;18.47;101399.31;5055352;28;19927;-44
2023/06/03 09:56:37;;;;;;;;;;;;;;;25.92;18.25;101408.38;5055426;28;20081;-46
2023/06/03 09:59:17;;;;;;;;;;;;;;;26.05;17.79;101411.44;5055093;28;20016;-46
2023/06/03 10:01:45;;;;;;;;;;;;;;;26.30;18.08;101407.06;5053698;28;19927;-48
2023/06/03 10:04:11;;;;;;;;;;;;;;;26.44;17.94;101410.88;5055179;28;19912;-43
2023/06/03 10:06:38;;;;;;;;;;;;;;;26.42;18.27;101409.50;5055138;28;20613;-44
2023/06/03 10:09:22;;;;;;;;;;;;;;;26.45;17.37;101412.53;5061080;28;20003;-44
2023/06/03 10:11:52;;;;;;;;;;;;;;;26.69;17.35;101403.72;5074737;28;19961;-45
2023/06/03 10:14:21;;;;;;;;;;;;;;;26.88;17.11;101400.34;5074978;28;19912;-44
2023/06/03 10:17:02;;;;;;;;;;;;;;;26.92;17.54;101404.19;5068695;28;19932;-46
2023/06/03 10:19:27;;;;;;;;;;;;;;;26.94;17.10;101410.25;5055100;28;19913;-41
2023/06/03 10:21:53;;;;;;;;;;;;;;;27.11;16.95;101407.97;5055491;28;19917;-43
2023/06/03 10:24:18;;;;;;;;;;;;;;;27.34;16.64;101412.06;5055061;28;19913;-41
2023/06/03 10:26:44;;;;;;;;;;;;;;;27.44;16.49;101421.38;5055342;28;19912;-42
2023/06/03 10:29:10;;;;;;;;;;;;;;;27.84;16.82;101403.75;5055597;28;20253;-39
2023/06/03 10:31:36;;;;;;;;;;;;;;;28.14;16.30;101408.22;5056224;28;19963;-41
2023/06/03 10:34:02;;;;;;;;;;;;;;;28.30;16.25;101397.03;5056018;28;19913;-39
2023/06/03 10:36:27;;;;;;;;;;;;;;;28.55;16.28;101402.34;5055940;28;20384;-42
2023/06/03 10:38:54;;;;;;;;;;;;;;;28.71;15.52;101391.94;5038560;28;19912;-41
2023/06/03 10:41:20;;;;;;;;;;;;;;;28.95;15.64;101394.69;5039295;28;19921;-39
2023/06/03 10:43:46;;;;;;;;;;;;;;;28.94;14.82;101400.53;5038404;28;20404;-40
2023/06/03 10:46:12;;;;;;;;;;;;;;;28.84;14.85;101395.13;5055522;28;19929;-40
2023/06/03 10:48:39;;;;;;;;;;;;;;;29.08;15.10;101393.16;5056238;28;19913;-39
2023/06/03 10:51:12;;;;;;;;;;;;;;;28.91;14.82;101401.94;5055198;28;19988;-39
2023/06/03 10:54:02;;;;;;;;;;;;;;;29.14;14.99;101397.56;5054315;28;20008;-39
2023/06/03 10:56:47;;;;;;;;;;;;;;;29.15;14.22;101390.06;5053319;28;20655;-40
2023/06/03 10:59:15;;;;;;;;;;;;;;;29.14;14.68;101383.72;5053085;28;20421;-42
2023/06/03 11:01:57;;;;;;;;;;;;;;;28.92;14.49;101391.72;5052610;28;19924;-39
2023/06/03 11:04:23;;;;;;;;;;;;;;;28.76;14.63;101393.81;5052877;28;19913;-39
2023/06/03 11:06:48;;;;;;;;;;;;;;;28.57;14.00;101391.00;5035311;28;19913;-43
2023/06/03 11:09:16;;;;;;;;;;;;;;;28.81;14.67;101382.72;5061033;28;19923;-39
2023/06/03 11:11:41;;;;;;;;;;;;;;;29.20;14.58;101378.94;5073947;28;19917;-40
2023/06/03 11:14:07;;;;;;;;;;;;;;;29.50;14.29;101385.16;5058799;28;20400;-42
2023/06/03 11:16:52;;;;;;;;;;;;;;;29.81;14.16;101385.56;5053909;28;19963;-41
2023/06/03 11:19:33;;;;;;;;;;;;;;;29.91;14.01;101373.47;5054236;28;19936;-42
2023/06/03 11:21:59;;;;;;;;;;;;;;;30.36;14.02;101375.78;5054366;28;19936;-42
2023/06/03 11:24:42;;;;;;;;;;;;;;;30.55;13.26;101373.72;5054119;28;19917;-41
2023/06/03 11:27:11;;;;;;;;;;;;;;;30.96;13.66;101367.41;5054153;28;19912;-41
2023/06/03 11:29:51;;;;;;;;;;;;;;;31.41;13.25;101373.06;5053633;28;19916;-39
2023/06/03 11:32:18;;;;;;;;;;;;;;;32.10;12.70;101369.25;5053690;28;19922;-43
2023/06/03 11:34:47;;;;;;;;;;;;;;;32.63;12.69;101373.09;5053669;28;19923;-41
2023/06/03 11:37:15;;;;;;;;;;;;;;;32.86;11.54;101371.06;5053593;28;19913;-41
2023/06/03 11:40:05;;;;;;;;;;;;;;;33.28;12.29;101353.97;5053631;28;19922;-43
2023/06/03 11:42:30;;;;;;;;;;;;;;;33.72;11.89;101366.78;5052842;28;20446;-39
2023/06/03 11:45:15;;;;;;;;;;;;;;;33.72;11.25;101358.41;5052372;28;19913;-39
2023/06/03 11:47:51;;;;;;;;;;;;;;;33.31;11.57;101361.69;5052634;28;20284;-40
2023/06/03 11:50:16;;;;;;;;;;;;;;;33.21;11.90;101348.06;5052471;28;19913;-39
2023/06/03 11:52:41;;;;;;;;;;;;;;;32.89;11.70;101348.16;5052569;28;20003;-41
2023/06/03 11:55:07;;;;;;;;;;;;;;;32.71;12.20;101349.28;5053019;28;19917;-39
2023/06/03 11:57:33;;;;;;;;;;;;;;;32.42;11.99;101350.59;5053043;28;19920;-41
2023/06/03 11:59:59;;;;;;;;;;;;;;;32.28;12.44;101347.09;5035595;28;19920;-44
2023/06/03 12:02:25;;;;;;;;;;;;;;;32.40;11.72;101338.97;5052095;28;19916;-43
2023/06/03 12:04:50;;;;;;;;;;;;;;;32.36;11.98;101335.19;5053199;28;19912;-41
2023/06/03 12:07:15;;;;;;;;;;;;;;;32.79;12.24;101329.00;5052743;28;19936;-39
2023/06/03 12:09:41;;;;;;;;;;;;;;;32.99;11.87;101322.00;5054947;28;19912;-41
2023/06/03 12:12:07;;;;;;;;;;;;;;;33.50;11.52;101319.56;5053275;28;19919;-43
2023/06/03 12:14:33;;;;;;;;;;;;;;;33.70;11.32;101318.13;5035002;28;20007;-39
2023/06/03 12:17:09;;;;;;;;;;;;;;;33.91;10.88;101323.78;5051862;28;19920;-40
2023/06/03 12:19:38;;;;;;;;;;;;;;;34.03;11.51;101320.34;5052966;28;19931;-39
2023/06/03 12:22:04;;;;;;;;;;;;;;;34.11;10.74;101319.47;5053127;28;19924;-41
2023/06/03 12:24:30;;;;;;;;;;;;;;;34.49;10.87;101311.16;5052734;28;19921;-42
2023/06/03 12:26:56;;;;;;;;;;;;;;;34.50;10.27;101309.97;5053321;28;19964;-41
2023/06/03 12:29:21;;;;;;;;;;;;;;;34.61;10.46;101312.41;5052661;28;20401;-43
2023/06/03 12:32:02;;;;;;;;;;;;;;;34.71;10.54;101312.03;5052969;28;19940;-45
2023/06/03 12:34:34;;;;;;;;;;;;;;;34.93;10.76;101304.50;5034769;28;20329;-41
2023/06/03 12:37:00;;;;;;;;;;;;;;;35.46;10.56;101314.94;5052674;28;19921;-40